sensor_id;sensor_type;location;lat;lon;timestamp;temperature;humidity
6018;DHT22;3037;51.068;13.780;2022-09-20T00:01:53;11.30;99.90
6018;DHT22;3037;51.068;13.780;2022-09-20T00:04:19;11.20;99.90
6018;DHT22;3037;51.068;13.780;2022-09-20T00:06:44;11.20;99.90
6018;DHT22;3037;51.068;13.780;2022-09-20T00:09:10;11.20;99.90
6018;DHT22;3037;51.068;13.780;2022-09-20T00:11:36;11.10;99.90
6018;DHT22;3037;51.068;13.780;2022-09-20T00:14:04;11.00;99.90
6018;DHT22;3037;51.068;13.780;2022-09-20T00:16:34;11.00;99.90
6018;DHT22;3037;51.068;13.780;2022-09-20T00:19:01;11.00;99.90
6018;DHT22;3037;51.068;13.780;2022-09-20T00:21:30;10.90;99.90
6018;DHT22;3037;51.068;13.780;2022-09-20T00:23:56;10.70;99.90
6018;DHT22;3037;51.068;13.780;2022-09-20T00:26:22;10.70;99.90
6018;DHT22;3037;51.068;13.780;2022-09-20T00:28:49;10.60;99.90
6018;DHT22;3037;51.068;13.780;2022-09-20T00:31:16;10.50;99.90
6018;DHT22;3037;51.068;13.780;2022-09-20T00:33:42;10.40;99.90
6018;DHT22;3037;51.068;13.780;2022-09-20T00:36:25;10.40;99.90
6018;DHT22;3037;51.068;13.780;2022-09-20T00:38:57;10.40;99.90
6018;DHT22;3037;51.068;13.780;2022-09-20T00:41:24;10.40;99.90
6018;DHT22;3037;51.068;13.780;2022-09-20T00:43:50;10.40;99.90
6018;DHT22;3037;51.068;13.780;2022-09-20T00:46:23;10.50;99.90
6018;DHT22;3037;51.068;13.780;2022-09-20T00:51:39;10.50;99.90
6018;DHT22;3037;51.068;13.780;2022-09-20T00:54:08;10.50;99.90
6018;DHT22;3037;51.068;13.780;2022-09-20T00:56:39;10.60;99.90
6018;DHT22;3037;51.068;13.780;2022-09-20T00:59:13;10.60;99.90
6018;DHT22;3037;51.068;13.780;2022-09-20T01:01:42;10.50;99.90
6018;DHT22;3037;51.068;13.780;2022-09-20T01:04:11;10.60;99.90
6018;DHT22;3037;51.068;13.780;2022-09-20T01:06:38;10.60;99.90
6018;DHT22;3037;51.068;13.780;2022-09-20T01:09:05;10.70;99.90
6018;DHT22;3037;51.068;13.780;2022-09-20T01:11:33;10.60;99.90
6018;DHT22;3037;51.068;13.780;2022-09-20T01:13:59;10.70;99.90
6018;DHT22;3037;51.068;13.780;2022-09-20T01:16:25;10.70;99.90
6018;DHT22;3037;51.068;13.780;2022-09-20T01:18:52;10.60;99.90
6018;DHT22;3037;51.068;13.780;2022-09-20T01:21:20;10.70;99.90
6018;DHT22;3037;51.068;13.780;2022-09-20T01:23:59;10.70;99.90
6018;DHT22;3037;51.068;13.780;2022-09-20T01:26:36;10.70;99.90
6018;DHT22;3037;51.068;13.780;2022-09-20T01:29:30;10.70;99.90
6018;DHT22;3037;51.068;13.780;2022-09-20T01:32:01;10.80;99.90
6018;DHT22;3037;51.068;13.780;2022-09-20T01:34:33;10.80;99.90
6018;DHT22;3037;51.068;13.780;2022-09-20T01:37:22;10.90;99.90
6018;DHT22;3037;51.068;13.780;2022-09-20T01:40:07;10.80;99.90
6018;DHT22;3037;51.068;13.780;2022-09-20T01:42:37;10.70;99.90
6018;DHT22;3037;51.068;13.780;2022-09-20T01:45:29;10.70;99.90
6018;DHT22;3037;51.068;13.780;2022-09-20T01:48:17;10.70;99.90
6018;DHT22;3037;51.068;13.780;2022-09-20T01:54:00;10.70;99.90
6018;DHT22;3037;51.068;13.780;2022-09-20T02:02:29;10.80;99.90
6018;DHT22;3037;51.068;13.780;2022-09-20T02:10:34;10.90;99.90
6018;DHT22;3037;51.068;13.780;2022-09-20T02:13:05;10.90;99.90
6018;DHT22;3037;51.068;13.780;2022-09-20T02:19:16;11.00;99.90
6018;DHT22;3037;51.068;13.780;2022-09-20T02:22:16;10.80;99.90
6018;DHT22;3037;51.068;13.780;2022-09-20T02:24:49;10.80;99.90
6018;DHT22;3037;51.068;13.780;2022-09-20T02:27:30;10.90;99.90
6018;DHT22;3037;51.068;13.780;2022-09-20T02:30:18;10.90;99.90
6018;DHT22;3037;51.068;13.780;2022-09-20T02:33:03;10.80;99.90
6018;DHT22;3037;51.068;13.780;2022-09-20T02:35:51;10.90;99.90
6018;DHT22;3037;51.068;13.780;2022-09-20T02:47:09;11.00;99.90
6018;DHT22;3037;51.068;13.780;2022-09-20T02:50:04;10.90;99.90
6018;DHT22;3037;51.068;13.780;2022-09-20T02:53:06;11.00;99.90
6018;DHT22;3037;51.068;13.780;2022-09-20T02:58:37;11.00;99.90
6018;DHT22;3037;51.068;13.780;2022-09-20T03:01:39;11.00;99.90
6018;DHT22;3037;51.068;13.780;2022-09-20T03:04:13;11.00;99.90
6018;DHT22;3037;51.068;13.780;2022-09-20T03:07:05;11.00;99.90
6018;DHT22;3037;51.068;13.780;2022-09-20T03:09:39;10.90;99.90
6018;DHT22;3037;51.068;13.780;2022-09-20T03:12:32;10.80;99.90
6018;DHT22;3037;51.068;13.780;2022-09-20T03:17:52;10.90;99.90
6018;DHT22;3037;51.068;13.780;2022-09-20T03:20:45;10.80;99.90
6018;DHT22;3037;51.068;13.780;2022-09-20T03:26:14;10.90;99.90
6018;DHT22;3037;51.068;13.780;2022-09-20T03:37:21;10.80;99.90
6018;DHT22;3037;51.068;13.780;2022-09-20T03:42:30;10.80;99.90
6018;DHT22;3037;51.068;13.780;2022-09-20T03:48:04;10.70;99.90
6018;DHT22;3037;51.068;13.780;2022-09-20T03:54:01;10.50;99.90
6018;DHT22;3037;51.068;13.780;2022-09-20T04:04:54;10.70;99.90
6018;DHT22;3037;51.068;13.780;2022-09-20T04:10:48;10.80;99.90
6018;DHT22;3037;51.068;13.780;2022-09-20T04:13:37;10.80;99.90
6018;DHT22;3037;51.068;13.780;2022-09-20T04:16:21;10.90;99.90
6018;DHT22;3037;51.068;13.780;2022-09-20T04:19:02;10.80;99.90
6018;DHT22;3037;51.068;13.780;2022-09-20T04:21:47;10.80;99.90
6018;DHT22;3037;51.068;13.780;2022-09-20T04:27:28;10.90;99.90
6018;DHT22;3037;51.068;13.780;2022-09-20T04:30:16;10.80;99.90
6018;DHT22;3037;51.068;13.780;2022-09-20T04:32:59;10.80;99.90
6018;DHT22;3037;51.068;13.780;2022-09-20T04:35:59;10.80;99.90
6018;DHT22;3037;51.068;13.780;2022-09-20T04:38:51;10.80;99.90
6018;DHT22;3037;51.068;13.780;2022-09-20T04:41:47;10.90;99.90
6018;DHT22;3037;51.068;13.780;2022-09-20T04:59:05;11.00;99.90
6018;DHT22;3037;51.068;13.780;2022-09-20T05:07:34;11.00;99.90
6018;DHT22;3037;51.068;13.780;2022-09-20T05:13:40;11.10;99.90
6018;DHT22;3037;51.068;13.780;2022-09-20T05:16:22;11.10;99.90
6018;DHT22;3037;51.068;13.780;2022-09-20T05:19:15;11.20;99.90
6018;DHT22;3037;51.068;13.780;2022-09-20T05:22:01;11.20;99.90
6018;DHT22;3037;51.068;13.780;2022-09-20T05:27:58;11.20;99.90
6018;DHT22;3037;51.068;13.780;2022-09-20T05:30:43;11.30;99.90
6018;DHT22;3037;51.068;13.780;2022-09-20T05:38:15;11.20;99.90
6018;DHT22;3037;51.068;13.780;2022-09-20T05:41:06;11.00;99.90
6018;DHT22;3037;51.068;13.780;2022-09-20T05:43:38;11.10;99.90
6018;DHT22;3037;51.068;13.780;2022-09-20T05:46:21;11.10;99.90
6018;DHT22;3037;51.068;13.780;2022-09-20T05:49:11;11.00;99.90
6018;DHT22;3037;51.068;13.780;2022-09-20T05:57:51;11.10;99.90
6018;DHT22;3037;51.068;13.780;2022-09-20T06:00:22;11.10;99.90
6018;DHT22;3037;51.068;13.780;2022-09-20T06:03:16;11.10;99.90
6018;DHT22;3037;51.068;13.780;2022-09-20T06:09:13;11.10;99.90
6018;DHT22;3037;51.068;13.780;2022-09-20T06:15:01;11.20;99.90
6018;DHT22;3037;51.068;13.780;2022-09-20T06:17:36;11.30;99.90
6018;DHT22;3037;51.068;13.780;2022-09-20T06:22:53;11.40;99.90
6018;DHT22;3037;51.068;13.780;2022-09-20T06:25:32;11.20;99.90
6018;DHT22;3037;51.068;13.780;2022-09-20T06:28:19;11.40;99.90
6018;DHT22;3037;51.068;13.780;2022-09-20T06:30:47;11.40;99.90
6018;DHT22;3037;51.068;13.780;2022-09-20T06:33:16;11.40;99.90
6018;DHT22;3037;51.068;13.780;2022-09-20T06:38:44;11.40;99.90
6018;DHT22;3037;51.068;13.780;2022-09-20T06:41:32;11.70;99.90
6018;DHT22;3037;51.068;13.780;2022-09-20T06:44:00;11.80;99.90
6018;DHT22;3037;51.068;13.780;2022-09-20T06:46:27;12.10;99.90
6018;DHT22;3037;51.068;13.780;2022-09-20T06:48:54;12.30;99.90
6018;DHT22;3037;51.068;13.780;2022-09-20T06:51:20;12.40;99.90
6018;DHT22;3037;51.068;13.780;2022-09-20T06:53:46;12.50;99.90
6018;DHT22;3037;51.068;13.780;2022-09-20T06:56:16;12.30;99.90
6018;DHT22;3037;51.068;13.780;2022-09-20T06:58:43;12.50;99.90
6018;DHT22;3037;51.068;13.780;2022-09-20T07:01:09;12.70;99.90
6018;DHT22;3037;51.068;13.780;2022-09-20T07:03:34;12.70;99.90
6018;DHT22;3037;51.068;13.780;2022-09-20T07:06:00;12.50;99.90
6018;DHT22;3037;51.068;13.780;2022-09-20T07:08:26;12.80;99.90
6018;DHT22;3037;51.068;13.780;2022-09-20T07:10:51;12.90;99.90
6018;DHT22;3037;51.068;13.780;2022-09-20T07:13:17;12.90;99.90
6018;DHT22;3037;51.068;13.780;2022-09-20T07:15:45;13.00;99.90
6018;DHT22;3037;51.068;13.780;2022-09-20T07:18:11;13.10;99.90
6018;DHT22;3037;51.068;13.780;2022-09-20T07:20:36;12.80;99.90
6018;DHT22;3037;51.068;13.780;2022-09-20T07:23:02;12.80;99.90
6018;DHT22;3037;51.068;13.780;2022-09-20T07:25:29;12.70;99.90
6018;DHT22;3037;51.068;13.780;2022-09-20T07:27:54;12.50;99.90
6018;DHT22;3037;51.068;13.780;2022-09-20T07:30:20;12.30;99.90
6018;DHT22;3037;51.068;13.780;2022-09-20T07:32:46;12.30;99.90
6018;DHT22;3037;51.068;13.780;2022-09-20T07:35:12;12.20;99.90
6018;DHT22;3037;51.068;13.780;2022-09-20T07:37:38;12.20;99.90
6018;DHT22;3037;51.068;13.780;2022-09-20T07:40:06;12.10;99.90
6018;DHT22;3037;51.068;13.780;2022-09-20T07:42:33;12.10;99.90
6018;DHT22;3037;51.068;13.780;2022-09-20T07:44:58;12.20;99.90
6018;DHT22;3037;51.068;13.780;2022-09-20T07:47:27;12.40;99.90
6018;DHT22;3037;51.068;13.780;2022-09-20T07:49:55;12.00;99.90
6018;DHT22;3037;51.068;13.780;2022-09-20T07:52:21;12.10;99.90
6018;DHT22;3037;51.068;13.780;2022-09-20T07:54:46;12.30;99.90
6018;DHT22;3037;51.068;13.780;2022-09-20T07:57:14;12.40;99.90
6018;DHT22;3037;51.068;13.780;2022-09-20T07:59:40;12.50;99.90
6018;DHT22;3037;51.068;13.780;2022-09-20T08:02:05;12.50;99.90
6018;DHT22;3037;51.068;13.780;2022-09-20T08:04:30;12.30;99.90
6018;DHT22;3037;51.068;13.780;2022-09-20T08:06:56;12.30;99.90
6018;DHT22;3037;51.068;13.780;2022-09-20T08:09:23;12.20;99.90
6018;DHT22;3037;51.068;13.780;2022-09-20T08:11:48;12.50;99.90
6018;DHT22;3037;51.068;13.780;2022-09-20T08:14:16;12.40;99.90
6018;DHT22;3037;51.068;13.780;2022-09-20T08:16:46;12.50;99.90
6018;DHT22;3037;51.068;13.780;2022-09-20T08:19:17;12.70;99.90
6018;DHT22;3037;51.068;13.780;2022-09-20T08:21:43;12.60;99.90
6018;DHT22;3037;51.068;13.780;2022-09-20T08:24:09;12.60;99.90
6018;DHT22;3037;51.068;13.780;2022-09-20T08:26:35;12.80;99.90
6018;DHT22;3037;51.068;13.780;2022-09-20T08:29:02;12.80;99.90
6018;DHT22;3037;51.068;13.780;2022-09-20T08:31:31;12.60;99.90
6018;DHT22;3037;51.068;13.780;2022-09-20T08:34:01;12.70;99.90
6018;DHT22;3037;51.068;13.780;2022-09-20T08:36:29;13.00;99.90
6018;DHT22;3037;51.068;13.780;2022-09-20T08:38:55;13.30;99.90
6018;DHT22;3037;51.068;13.780;2022-09-20T08:41:32;13.40;99.90
6018;DHT22;3037;51.068;13.780;2022-09-20T08:44:02;13.40;99.90
6018;DHT22;3037;51.068;13.780;2022-09-20T08:46:32;13.50;99.90
6018;DHT22;3037;51.068;13.780;2022-09-20T08:49:03;13.80;99.90
6018;DHT22;3037;51.068;13.780;2022-09-20T08:51:31;14.10;99.90
6018;DHT22;3037;51.068;13.780;2022-09-20T08:53:57;14.00;99.90
6018;DHT22;3037;51.068;13.780;2022-09-20T08:56:28;14.20;99.90
6018;DHT22;3037;51.068;13.780;2022-09-20T08:58:54;14.00;99.90
6018;DHT22;3037;51.068;13.780;2022-09-20T09:01:26;14.40;99.90
6018;DHT22;3037;51.068;13.780;2022-09-20T09:04:04;14.50;99.90
6018;DHT22;3037;51.068;13.780;2022-09-20T09:06:34;14.70;99.90
6018;DHT22;3037;51.068;13.780;2022-09-20T09:09:00;15.00;99.90
6018;DHT22;3037;51.068;13.780;2022-09-20T09:11:26;15.70;99.90
6018;DHT22;3037;51.068;13.780;2022-09-20T09:13:56;15.70;99.90
6018;DHT22;3037;51.068;13.780;2022-09-20T09:16:25;15.70;99.90
6018;DHT22;3037;51.068;13.780;2022-09-20T09:18:51;15.70;99.90
6018;DHT22;3037;51.068;13.780;2022-09-20T09:21:26;15.40;99.90
6018;DHT22;3037;51.068;13.780;2022-09-20T09:23:56;15.40;99.90
6018;DHT22;3037;51.068;13.780;2022-09-20T09:26:26;16.10;99.90
6018;DHT22;3037;51.068;13.780;2022-09-20T09:29:13;16.80;99.90
6018;DHT22;3037;51.068;13.780;2022-09-20T09:31:39;17.80;99.90
6018;DHT22;3037;51.068;13.780;2022-09-20T09:34:32;18.40;99.70
6018;DHT22;3037;51.068;13.780;2022-09-20T09:37:03;20.20;95.50
6018;DHT22;3037;51.068;13.780;2022-09-20T09:39:31;23.10;76.40
6018;DHT22;3037;51.068;13.780;2022-09-20T09:41:58;25.00;55.70
6018;DHT22;3037;51.068;13.780;2022-09-20T09:44:30;26.50;37.90
6018;DHT22;3037;51.068;13.780;2022-09-20T09:46:58;25.70;23.70
6018;DHT22;3037;51.068;13.780;2022-09-20T09:49:25;26.70;25.20
6018;DHT22;3037;51.068;13.780;2022-09-20T09:54:25;26.80;11.70
6018;DHT22;3037;51.068;13.780;2022-09-20T09:59:54;23.20;12.90
6018;DHT22;3037;51.068;13.780;2022-09-20T10:05:34;19.90;25.90
6018;DHT22;3037;51.068;13.780;2022-09-20T10:14:00;18.00;61.10
6018;DHT22;3037;51.068;13.780;2022-09-20T10:22:25;16.80;92.20
6018;DHT22;3037;51.068;13.780;2022-09-20T10:31:08;17.20;94.60
6018;DHT22;3037;51.068;13.780;2022-09-20T10:33:58;17.20;95.20
6018;DHT22;3037;51.068;13.780;2022-09-20T10:36:40;16.90;95.80
6018;DHT22;3037;51.068;13.780;2022-09-20T10:39:21;16.90;95.80
6018;DHT22;3037;51.068;13.780;2022-09-20T10:41:53;17.10;95.30
6018;DHT22;3037;51.068;13.780;2022-09-20T10:44:57;17.50;92.50
6018;DHT22;3037;51.068;13.780;2022-09-20T10:47:34;17.30;92.00
6018;DHT22;3037;51.068;13.780;2022-09-20T10:53:27;17.00;92.50
6018;DHT22;3037;51.068;13.780;2022-09-20T10:59:03;17.20;92.60
6018;DHT22;3037;51.068;13.780;2022-09-20T11:04:19;16.60;92.80
6018;DHT22;3037;51.068;13.780;2022-09-20T11:07:16;17.30;93.20
6018;DHT22;3037;51.068;13.780;2022-09-20T11:09:50;17.50;91.20
6018;DHT22;3037;51.068;13.780;2022-09-20T11:12:37;17.90;90.40
6018;DHT22;3037;51.068;13.780;2022-09-20T11:15:22;19.00;84.70
6018;DHT22;3037;51.068;13.780;2022-09-20T11:18:03;18.70;80.20
6018;DHT22;3037;51.068;13.780;2022-09-20T11:20:34;18.10;83.40
6018;DHT22;3037;51.068;13.780;2022-09-20T11:23:10;18.60;84.10
6018;DHT22;3037;51.068;13.780;2022-09-20T11:25:39;18.80;82.60
6018;DHT22;3037;51.068;13.780;2022-09-20T11:33:45;18.30;79.20
6018;DHT22;3037;51.068;13.780;2022-09-20T11:36:29;18.50;81.40
6018;DHT22;3037;51.068;13.780;2022-09-20T11:39:10;18.40;74.70
6018;DHT22;3037;51.068;13.780;2022-09-20T11:41:37;18.50;78.50
6018;DHT22;3037;51.068;13.780;2022-09-20T11:44:10;18.80;76.50
6018;DHT22;3037;51.068;13.780;2022-09-20T11:49:22;18.60;59.20
6018;DHT22;3037;51.068;13.780;2022-09-20T11:52:02;18.30;67.10
6018;DHT22;3037;51.068;13.780;2022-09-20T11:54:58;18.60;67.70
6018;DHT22;3037;51.068;13.780;2022-09-20T11:57:25;19.10;69.20
6018;DHT22;3037;51.068;13.780;2022-09-20T11:59:55;18.20;70.40
6018;DHT22;3037;51.068;13.780;2022-09-20T12:02:46;17.90;70.90
6018;DHT22;3037;51.068;13.780;2022-09-20T12:05:32;18.00;71.80
6018;DHT22;3037;51.068;13.780;2022-09-20T12:08:01;17.60;76.70
6018;DHT22;3037;51.068;13.780;2022-09-20T12:10:31;16.90;80.10
6018;DHT22;3037;51.068;13.780;2022-09-20T12:13:04;17.40;79.50
6018;DHT22;3037;51.068;13.780;2022-09-20T12:15:34;18.00;70.50
6018;DHT22;3037;51.068;13.780;2022-09-20T12:18:03;18.20;75.40
6018;DHT22;3037;51.068;13.780;2022-09-20T12:28:38;20.00;55.90
6018;DHT22;3037;51.068;13.780;2022-09-20T12:39:17;19.60;49.30
6018;DHT22;3037;51.068;13.780;2022-09-20T12:47:20;19.80;53.80
6018;DHT22;3037;51.068;13.780;2022-09-20T13:05:47;20.40;45.60
6018;DHT22;3037;51.068;13.780;2022-09-20T13:08:24;20.50;42.10
6018;DHT22;3037;51.068;13.780;2022-09-20T13:13:57;20.40;38.80
6018;DHT22;3037;51.068;13.780;2022-09-20T13:19:25;21.00;40.80
6018;DHT22;3037;51.068;13.780;2022-09-20T13:24:59;21.10;35.30
6018;DHT22;3037;51.068;13.780;2022-09-20T13:27:31;20.60;38.60
6018;DHT22;3037;51.068;13.780;2022-09-20T13:30:28;20.90;39.10
6018;DHT22;3037;51.068;13.780;2022-09-20T13:33:22;20.50;36.50
6018;DHT22;3037;51.068;13.780;2022-09-20T13:35:52;19.80;33.20
6018;DHT22;3037;51.068;13.780;2022-09-20T13:38:19;19.40;35.00
6018;DHT22;3037;51.068;13.780;2022-09-20T13:40:48;19.20;35.10
6018;DHT22;3037;51.068;13.780;2022-09-20T13:43:35;18.80;38.90
6018;DHT22;3037;51.068;13.780;2022-09-20T13:48:35;17.70;42.40
6018;DHT22;3037;51.068;13.780;2022-09-20T13:51:00;17.30;44.30
6018;DHT22;3037;51.068;13.780;2022-09-20T13:53:27;16.90;46.30
6018;DHT22;3037;51.068;13.780;2022-09-20T13:55:55;16.80;45.90
6018;DHT22;3037;51.068;13.780;2022-09-20T14:00:53;16.50;49.50
6018;DHT22;3037;51.068;13.780;2022-09-20T14:03:20;16.10;42.70
6018;DHT22;3037;51.068;13.780;2022-09-20T14:05:54;16.50;36.90
6018;DHT22;3037;51.068;13.780;2022-09-20T14:08:40;16.40;36.90
6018;DHT22;3037;51.068;13.780;2022-09-20T14:11:15;16.00;48.30
6018;DHT22;3037;51.068;13.780;2022-09-20T14:13:45;15.60;67.20
6018;DHT22;3037;51.068;13.780;2022-09-20T14:16:12;15.20;89.10
6018;DHT22;3037;51.068;13.780;2022-09-20T14:18:39;14.80;94.40
6018;DHT22;3037;51.068;13.780;2022-09-20T14:21:07;14.60;97.60
6018;DHT22;3037;51.068;13.780;2022-09-20T14:28:45;14.20;99.90
6018;DHT22;3037;51.068;13.780;2022-09-20T14:31:14;14.00;99.90
6018;DHT22;3037;51.068;13.780;2022-09-20T14:33:46;14.00;99.90
6018;DHT22;3037;51.068;13.780;2022-09-20T14:36:19;13.70;99.90
6018;DHT22;3037;51.068;13.780;2022-09-20T14:38:47;13.30;1.00
6018;DHT22;3037;51.068;13.780;2022-09-20T14:41:33;13.50;1.00
6018;DHT22;3037;51.068;13.780;2022-09-20T14:44:01;13.30;99.90
6018;DHT22;3037;51.068;13.780;2022-09-20T14:46:32;13.20;99.90
6018;DHT22;3037;51.068;13.780;2022-09-20T14:49:19;13.30;76.30
6018;DHT22;3037;51.068;13.780;2022-09-20T14:51:46;13.10;99.90
6018;DHT22;3037;51.068;13.780;2022-09-20T14:56:40;12.90;1.00
6018;DHT22;3037;51.068;13.780;2022-09-20T15:01:53;13.40;1.00
6018;DHT22;3037;51.068;13.780;2022-09-20T15:04:21;13.60;99.90
6018;DHT22;3037;51.068;13.780;2022-09-20T15:06:48;13.80;99.90
6018;DHT22;3037;51.068;13.780;2022-09-20T15:09:14;13.80;99.90
6018;DHT22;3037;51.068;13.780;2022-09-20T15:11:40;13.80;58.20
6018;DHT22;3037;51.068;13.780;2022-09-20T15:14:06;14.00;40.20
6018;DHT22;3037;51.068;13.780;2022-09-20T15:16:32;14.10;99.90
6018;DHT22;3037;51.068;13.780;2022-09-20T15:18:58;14.20;1.00
6018;DHT22;3037;51.068;13.780;2022-09-20T15:21:24;14.30;99.40
6018;DHT22;3037;51.068;13.780;2022-09-20T15:23:49;14.20;98.90
6018;DHT22;3037;51.068;13.780;2022-09-20T15:26:15;14.20;99.10
6018;DHT22;3037;51.068;13.780;2022-09-20T15:28:41;14.00;99.20
6018;DHT22;3037;51.068;13.780;2022-09-20T15:31:06;13.80;99.90
6018;DHT22;3037;51.068;13.780;2022-09-20T15:33:32;13.70;99.90
6018;DHT22;3037;51.068;13.780;2022-09-20T15:35:59;13.70;99.80
6018;DHT22;3037;51.068;13.780;2022-09-20T15:38:26;13.80;99.90
6018;DHT22;3037;51.068;13.780;2022-09-20T15:40:52;13.70;99.90
6018;DHT22;3037;51.068;13.780;2022-09-20T15:43:19;13.70;99.90
6018;DHT22;3037;51.068;13.780;2022-09-20T15:45:53;14.00;99.90
6018;DHT22;3037;51.068;13.780;2022-09-20T15:48:21;14.10;99.90
6018;DHT22;3037;51.068;13.780;2022-09-20T15:51:00;14.20;99.90
6018;DHT22;3037;51.068;13.780;2022-09-20T15:53:28;14.10;99.90
6018;DHT22;3037;51.068;13.780;2022-09-20T15:55:57;14.00;99.90
6018;DHT22;3037;51.068;13.780;2022-09-20T15:58:25;13.90;99.90
6018;DHT22;3037;51.068;13.780;2022-09-20T16:00:51;13.80;99.90
6018;DHT22;3037;51.068;13.780;2022-09-20T16:03:17;13.60;99.90
6018;DHT22;3037;51.068;13.780;2022-09-20T16:05:42;13.50;99.90
6018;DHT22;3037;51.068;13.780;2022-09-20T16:08:08;13.50;99.90
6018;DHT22;3037;51.068;13.780;2022-09-20T16:10:33;13.40;99.90
6018;DHT22;3037;51.068;13.780;2022-09-20T16:12:59;13.30;99.90
6018;DHT22;3037;51.068;13.780;2022-09-20T16:15:24;13.20;99.90
6018;DHT22;3037;51.068;13.780;2022-09-20T16:17:50;13.10;99.90
6018;DHT22;3037;51.068;13.780;2022-09-20T16:20:34;12.90;99.90
6018;DHT22;3037;51.068;13.780;2022-09-20T16:22:59;12.80;99.90
6018;DHT22;3037;51.068;13.780;2022-09-20T16:25:26;13.10;99.90
6018;DHT22;3037;51.068;13.780;2022-09-20T16:27:51;13.30;99.90
6018;DHT22;3037;51.068;13.780;2022-09-20T16:30:17;13.30;99.90
6018;DHT22;3037;51.068;13.780;2022-09-20T16:32:44;12.70;1.00
6018;DHT22;3037;51.068;13.780;2022-09-20T16:35:10;12.50;1.00
6018;DHT22;3037;51.068;13.780;2022-09-20T16:37:36;12.30;99.90
6018;DHT22;3037;51.068;13.780;2022-09-20T16:40:03;12.10;99.90
6018;DHT22;3037;51.068;13.780;2022-09-20T16:42:29;13.80;1.00
6018;DHT22;3037;51.068;13.780;2022-09-20T16:44:57;14.00;99.90
6018;DHT22;3037;51.068;13.780;2022-09-20T16:47:22;13.40;99.90
6018;DHT22;3037;51.068;13.780;2022-09-20T16:49:49;13.00;99.90
6018;DHT22;3037;51.068;13.780;2022-09-20T16:52:17;13.60;1.00
6018;DHT22;3037;51.068;13.780;2022-09-20T16:54:43;14.00;1.00
6018;DHT22;3037;51.068;13.780;2022-09-20T16:57:09;13.90;99.90
6018;DHT22;3037;51.068;13.780;2022-09-20T16:59:34;13.60;1.00
6018;DHT22;3037;51.068;13.780;2022-09-20T17:02:00;13.00;1.00
6018;DHT22;3037;51.068;13.780;2022-09-20T17:04:25;13.60;99.90
6018;DHT22;3037;51.068;13.780;2022-09-20T17:06:51;13.30;99.90
6018;DHT22;3037;51.068;13.780;2022-09-20T17:09:17;13.10;1.00
6018;DHT22;3037;51.068;13.780;2022-09-20T17:11:48;13.00;1.00
6018;DHT22;3037;51.068;13.780;2022-09-20T17:14:15;12.50;1.00
6018;DHT22;3037;51.068;13.780;2022-09-20T17:16:41;12.30;1.00
6018;DHT22;3037;51.068;13.780;2022-09-20T17:19:09;12.00;1.00
6018;DHT22;3037;51.068;13.780;2022-09-20T17:21:40;12.00;99.90
6018;DHT22;3037;51.068;13.780;2022-09-20T17:24:08;12.20;99.90
6018;DHT22;3037;51.068;13.780;2022-09-20T17:26:39;11.90;99.90
6018;DHT22;3037;51.068;13.780;2022-09-20T17:29:07;11.50;1.00
6018;DHT22;3037;51.068;13.780;2022-09-20T17:31:35;11.50;99.90
6018;DHT22;3037;51.068;13.780;2022-09-20T17:34:03;11.50;99.90
6018;DHT22;3037;51.068;13.780;2022-09-20T17:36:32;11.40;99.90
6018;DHT22;3037;51.068;13.780;2022-09-20T17:38:59;11.30;99.90
6018;DHT22;3037;51.068;13.780;2022-09-20T17:41:25;11.30;99.90
6018;DHT22;3037;51.068;13.780;2022-09-20T17:43:56;11.20;99.90
6018;DHT22;3037;51.068;13.780;2022-09-20T17:46:27;11.00;99.90
6018;DHT22;3037;51.068;13.780;2022-09-20T17:49:00;10.90;99.90
6018;DHT22;3037;51.068;13.780;2022-09-20T17:51:28;10.90;99.90
6018;DHT22;3037;51.068;13.780;2022-09-20T17:53:54;10.80;99.90
6018;DHT22;3037;51.068;13.780;2022-09-20T17:56:21;10.80;99.90
6018;DHT22;3037;51.068;13.780;2022-09-20T17:58:53;10.80;99.90
6018;DHT22;3037;51.068;13.780;2022-09-20T18:01:19;10.80;99.90
6018;DHT22;3037;51.068;13.780;2022-09-20T18:03:46;10.80;99.90
6018;DHT22;3037;51.068;13.780;2022-09-20T18:08:39;10.80;99.90
6018;DHT22;3037;51.068;13.780;2022-09-20T18:11:05;10.80;99.90
6018;DHT22;3037;51.068;13.780;2022-09-20T18:13:30;10.80;99.90
6018;DHT22;3037;51.068;13.780;2022-09-20T18:15:56;10.90;99.90
6018;DHT22;3037;51.068;13.780;2022-09-20T18:18:23;10.90;99.90
6018;DHT22;3037;51.068;13.780;2022-09-20T18:20:48;10.80;99.90
6018;DHT22;3037;51.068;13.780;2022-09-20T18:23:14;10.90;99.90
6018;DHT22;3037;51.068;13.780;2022-09-20T18:25:40;10.90;99.90
6018;DHT22;3037;51.068;13.780;2022-09-20T18:28:24;10.90;99.90
6018;DHT22;3037;51.068;13.780;2022-09-20T18:31:02;10.90;99.90
6018;DHT22;3037;51.068;13.780;2022-09-20T18:33:29;10.90;99.90
6018;DHT22;3037;51.068;13.780;2022-09-20T18:36:03;10.80;99.90
6018;DHT22;3037;51.068;13.780;2022-09-20T18:38:29;10.80;99.90
6018;DHT22;3037;51.068;13.780;2022-09-20T18:40:57;10.90;99.90
6018;DHT22;3037;51.068;13.780;2022-09-20T18:43:25;10.80;99.90
6018;DHT22;3037;51.068;13.780;2022-09-20T18:45:52;10.80;99.90
6018;DHT22;3037;51.068;13.780;2022-09-20T18:48:19;10.70;99.90
6018;DHT22;3037;51.068;13.780;2022-09-20T18:50:57;10.60;99.90
6018;DHT22;3037;51.068;13.780;2022-09-20T18:53:28;10.40;99.90
6018;DHT22;3037;51.068;13.780;2022-09-20T18:55:54;10.30;99.90
6018;DHT22;3037;51.068;13.780;2022-09-20T18:58:21;10.10;99.90
6018;DHT22;3037;51.068;13.780;2022-09-20T19:00:54;10.00;99.90
6018;DHT22;3037;51.068;13.780;2022-09-20T19:03:27;10.00;99.90
6018;DHT22;3037;51.068;13.780;2022-09-20T19:06:02;9.90;99.90
6018;DHT22;3037;51.068;13.780;2022-09-20T19:08:39;9.90;99.90
6018;DHT22;3037;51.068;13.780;2022-09-20T19:11:11;9.80;99.90
6018;DHT22;3037;51.068;13.780;2022-09-20T19:16:35;9.60;99.90
6018;DHT22;3037;51.068;13.780;2022-09-20T19:22:14;9.50;99.90
6018;DHT22;3037;51.068;13.780;2022-09-20T19:24:55;9.30;99.90
6018;DHT22;3037;51.068;13.780;2022-09-20T19:27:26;9.40;99.90
6018;DHT22;3037;51.068;13.780;2022-09-20T19:29:52;9.30;99.90
6018;DHT22;3037;51.068;13.780;2022-09-20T19:32:18;9.20;99.90
6018;DHT22;3037;51.068;13.780;2022-09-20T19:34:49;9.20;99.90
6018;DHT22;3037;51.068;13.780;2022-09-20T19:45:42;9.20;99.90
6018;DHT22;3037;51.068;13.780;2022-09-20T19:48:17;9.30;99.90
6018;DHT22;3037;51.068;13.780;2022-09-20T19:50:51;9.30;99.90
6018;DHT22;3037;51.068;13.780;2022-09-20T19:53:19;9.30;99.90
6018;DHT22;3037;51.068;13.780;2022-09-20T19:55:49;9.40;99.90
6018;DHT22;3037;51.068;13.780;2022-09-20T19:58:16;9.30;99.90
6018;DHT22;3037;51.068;13.780;2022-09-20T20:00:43;9.40;99.90
6018;DHT22;3037;51.068;13.780;2022-09-20T20:03:13;9.40;99.90
6018;DHT22;3037;51.068;13.780;2022-09-20T20:05:50;9.40;99.90
6018;DHT22;3037;51.068;13.780;2022-09-20T20:08:28;9.40;99.90
6018;DHT22;3037;51.068;13.780;2022-09-20T20:14:04;9.30;99.90
6018;DHT22;3037;51.068;13.780;2022-09-20T20:19:40;9.20;99.90
6018;DHT22;3037;51.068;13.780;2022-09-20T20:24:57;9.00;99.90
6018;DHT22;3037;51.068;13.780;2022-09-20T20:27:24;9.00;99.90
6018;DHT22;3037;51.068;13.780;2022-09-20T20:29:53;8.90;99.90
6018;DHT22;3037;51.068;13.780;2022-09-20T20:32:19;9.00;99.90